createdAt,value
2022-12-02T00:01:50.110Z,98.77
2022-12-02T00:04:28.210Z,98.84
2022-12-02T00:06:59.627Z,98.96
2022-12-02T00:09:33.895Z,98.62
2022-12-02T00:12:18.859Z,98.49
2022-12-02T00:14:47.558Z,98.87
2022-12-02T00:17:15.709Z,98.70
2022-12-02T00:19:44.190Z,98.41
2022-12-02T00:22:12.405Z,98.92
2022-12-02T00:24:40.435Z,98.81
2022-12-02T00:27:08.212Z,98.79
2022-12-02T00:29:36.470Z,98.42
2022-12-02T00:32:04.865Z,98.62
2022-12-02T00:34:33.027Z,98.82
2022-12-02T00:37:00.847Z,98.54
2022-12-02T00:39:28.746Z,98.90
2022-12-02T00:41:56.729Z,98.59
2022-12-02T00:44:43.747Z,99.01
2022-12-02T00:47:11.664Z,98.54
2022-12-02T00:49:39.684Z,98.12
2022-12-02T00:52:07.566Z,98.42
2022-12-02T00:54:35.546Z,98.43
2022-12-02T00:57:03.999Z,98.27
2022-12-02T00:59:31.929Z,98.28
2022-12-02T01:01:59.858Z,98.20
2022-12-02T01:04:27.794Z,98.26
2022-12-02T01:06:55.868Z,98.61
2022-12-02T01:09:24.146Z,98.51
2022-12-02T01:11:52.110Z,98.43
2022-12-02T01:14:21.006Z,98.13
2022-12-02T01:16:49.352Z,98.29
2022-12-02T01:19:17.455Z,98.03
2022-12-02T01:21:45.477Z,98.16
2022-12-02T01:24:13.392Z,98.00
2022-12-02T01:26:41.663Z,98.33
2022-12-02T01:29:09.942Z,98.49
2022-12-02T01:31:38.115Z,98.26
2022-12-02T01:34:07.365Z,98.26
2022-12-02T01:36:35.482Z,98.18
2022-12-02T01:39:03.630Z,98.48
2022-12-02T01:41:31.815Z,98.70
2022-12-02T01:44:00.162Z,98.73
2022-12-02T01:46:28.237Z,98.74
2022-12-02T01:48:56.320Z,98.85
2022-12-02T01:51:24.166Z,98.82
2022-12-02T01:53:52.945Z,98.29
2022-12-02T01:56:21.795Z,98.35
2022-12-02T01:58:49.712Z,98.74
2022-12-02T02:01:33.069Z,98.53
2022-12-02T02:04:02.448Z,98.30
2022-12-02T02:06:35.071Z,98.29
2022-12-02T02:09:04.420Z,98.56
2022-12-02T02:11:32.547Z,98.61
2022-12-02T02:14:02.046Z,98.65
2022-12-02T02:16:30.458Z,98.96
2022-12-02T02:18:59.415Z,98.76
2022-12-02T02:21:33.221Z,99.00
2022-12-02T02:24:02.630Z,98.97
2022-12-02T02:26:32.389Z,99.15
2022-12-02T02:29:01.017Z,99.07
2022-12-02T02:31:29.274Z,99.14
2022-12-02T02:33:57.467Z,99.28
2022-12-02T02:36:25.525Z,99.52
2022-12-02T02:38:54.292Z,99.09
2022-12-02T02:41:22.499Z,98.01
2022-12-02T02:43:50.672Z,97.58
2022-12-02T02:46:18.966Z,97.78
2022-12-02T02:48:48.539Z,97.73
2022-12-02T02:51:17.288Z,98.05
2022-12-02T02:53:45.687Z,97.96
2022-12-02T02:56:14.746Z,98.32
2022-12-02T02:58:43.154Z,98.20
2022-12-02T03:01:19.363Z,97.93
2022-12-02T03:03:53.342Z,98.18
2022-12-02T03:06:24.789Z,98.47
2022-12-02T03:08:54.059Z,98.08
2022-12-02T03:11:22.698Z,98.06
2022-12-02T03:13:51.946Z,97.93
2022-12-02T03:16:22.757Z,98.20
2022-12-02T03:18:53.232Z,98.61
2022-12-02T03:21:22.179Z,98.25
2022-12-02T03:23:52.679Z,98.19
2022-12-02T03:26:21.243Z,98.18
2022-12-02T03:28:50.133Z,98.23
2022-12-02T03:31:18.387Z,98.66
2022-12-02T03:33:46.499Z,98.51
2022-12-02T03:36:14.919Z,98.17
2022-12-02T03:38:43.956Z,98.06
2022-12-02T03:41:13.170Z,98.57
2022-12-02T03:43:41.652Z,98.34
2022-12-02T03:46:10.228Z,97.90
2022-12-02T03:48:40.202Z,97.85
2022-12-02T03:51:09.509Z,97.76
2022-12-02T03:53:37.722Z,97.67
2022-12-02T03:56:07.701Z,97.35
2022-12-02T03:58:50.579Z,97.26
2022-12-02T04:01:20.936Z,97.08
2022-12-02T04:03:48.951Z,96.59
2022-12-02T04:06:16.921Z,97.31
2022-12-02T04:08:44.993Z,97.48
2022-12-02T04:11:13.109Z,96.90
2022-12-02T04:13:40.999Z,96.98
2022-12-02T04:16:09.261Z,97.36
2022-12-02T04:18:37.217Z,97.20
2022-12-02T04:21:05.760Z,97.23
2022-12-02T04:23:33.559Z,97.50
2022-12-02T04:26:01.647Z,97.67
2022-12-02T04:28:29.966Z,97.21
2022-12-02T04:30:58.216Z,97.43
2022-12-02T04:33:26.176Z,97.46
2022-12-02T04:35:54.594Z,97.71
2022-12-02T04:38:22.779Z,97.96
2022-12-02T04:40:50.730Z,98.67
2022-12-02T04:43:18.698Z,97.96
2022-12-02T04:45:46.600Z,97.91
2022-12-02T04:48:14.527Z,98.30
2022-12-02T04:50:42.403Z,98.01
2022-12-02T04:53:10.244Z,97.62
2022-12-02T04:55:38.443Z,97.54
2022-12-02T04:58:06.455Z,97.82
2022-12-02T05:00:34.566Z,98.02
2022-12-02T05:03:02.494Z,98.30
2022-12-02T05:05:30.443Z,99.35
2022-12-02T05:07:58.263Z,99.08
2022-12-02T05:10:26.119Z,99.41
2022-12-02T05:12:53.915Z,99.49
2022-12-02T05:15:21.744Z,98.91
2022-12-02T05:17:49.593Z,98.82
2022-12-02T05:20:17.700Z,98.79
2022-12-02T05:22:45.673Z,98.72
2022-12-02T05:25:13.967Z,99.18
2022-12-02T05:27:41.994Z,99.07
2022-12-02T05:30:12.014Z,98.98
2022-12-02T05:32:40.026Z,99.56
2022-12-02T05:35:08.057Z,99.28
2022-12-02T05:37:35.901Z,99.00
2022-12-02T05:40:04.287Z,99.35
2022-12-02T05:42:34.343Z,99.64
2022-12-02T05:45:13.629Z,99.94
2022-12-02T05:47:42.279Z,99.89
2022-12-02T05:50:13.043Z,99.52
2022-12-02T05:52:43.741Z,99.58
2022-12-02T05:55:15.599Z,99.55
2022-12-02T05:57:44.372Z,99.41
2022-12-02T06:00:22.400Z,99.39
2022-12-02T06:02:58.653Z,99.50
2022-12-02T06:05:30.082Z,99.40
2022-12-02T06:08:14.696Z,99.43
2022-12-02T06:10:47.070Z,99.49
2022-12-02T06:13:20.431Z,99.40
2022-12-02T06:15:50.091Z,99.51
2022-12-02T06:18:29.838Z,99.53
2022-12-02T06:21:00.723Z,99.50
2022-12-02T06:23:30.272Z,99.62
2022-12-02T06:25:59.177Z,99.73
2022-12-02T06:28:34.657Z,99.95
2022-12-02T06:31:35.329Z,99.94
2022-12-02T06:34:23.483Z,99.97
2022-12-02T06:36:51.477Z,99.75
2022-12-02T06:39:23.298Z,99.55
2022-12-02T06:41:52.263Z,99.42
2022-12-02T06:44:41.441Z,99.48
2022-12-02T06:47:37.376Z,99.50
2022-12-02T06:50:05.195Z,99.58
2022-12-02T06:52:35.479Z,99.57
2022-12-02T06:55:11.126Z,99.78
2022-12-02T06:57:39.382Z,99.98
2022-12-02T07:00:10.174Z,99.86
2022-12-02T07:02:41.921Z,99.69
2022-12-02T07:05:16.945Z,99.60
2022-12-02T07:07:44.892Z,99.97
2022-12-02T07:10:21.616Z,100.00
2022-12-02T07:12:50.122Z,99.94
2022-12-02T07:15:28.417Z,99.91
2022-12-02T07:18:18.831Z,99.70
2022-12-02T07:20:57.703Z,99.50
2022-12-02T07:23:28.292Z,99.44
2022-12-02T07:26:01.059Z,99.45
2022-12-02T07:28:38.702Z,99.09
2022-12-02T07:31:23.961Z,98.94
2022-12-02T07:33:52.467Z,98.82
2022-12-02T07:36:20.980Z,98.86
2022-12-02T07:39:06.262Z,98.84
2022-12-02T07:41:37.031Z,98.90
2022-12-02T07:44:06.667Z,98.86
2022-12-02T07:46:34.671Z,99.08
2022-12-02T07:49:02.713Z,99.28
2022-12-02T07:51:30.643Z,98.73
2022-12-02T07:53:58.687Z,98.89
2022-12-02T07:56:26.684Z,98.94
2022-12-02T07:59:12.336Z,98.89
2022-12-02T08:01:41.476Z,98.59
2022-12-02T08:04:09.605Z,98.26
2022-12-02T08:06:39.952Z,98.37
2022-12-02T08:09:09.553Z,98.41
2022-12-02T08:11:37.907Z,98.46
2022-12-02T08:14:06.035Z,98.53
2022-12-02T08:16:34.748Z,98.42
2022-12-02T08:19:02.965Z,98.41
2022-12-02T08:21:32.713Z,98.25
2022-12-02T08:24:00.736Z,98.14
2022-12-02T08:26:28.524Z,97.76
2022-12-02T08:28:56.481Z,97.78
2022-12-02T08:31:25.100Z,98.10
2022-12-02T08:33:53.335Z,98.22
2022-12-02T08:36:22.566Z,98.09
2022-12-02T08:38:50.824Z,97.97
2022-12-02T08:41:19.430Z,97.97
2022-12-02T08:43:47.918Z,97.84
2022-12-02T08:46:16.301Z,97.61
2022-12-02T08:48:44.320Z,97.78
2022-12-02T08:51:12.255Z,97.81
2022-12-02T08:53:40.481Z,97.56
2022-12-02T08:56:08.482Z,97.78
2022-12-02T08:58:36.694Z,97.46
2022-12-02T09:01:05.129Z,97.40
2022-12-02T09:03:33.948Z,97.36
2022-12-02T09:06:02.341Z,96.98
2022-12-02T09:08:30.534Z,96.93
2022-12-02T09:10:58.996Z,96.83
2022-12-02T09:13:27.092Z,96.43
2022-12-02T09:15:55.027Z,96.21
2022-12-02T09:18:22.975Z,96.35
2022-12-02T09:20:50.865Z,96.78
2022-12-02T09:23:18.746Z,96.78
2022-12-02T09:25:46.825Z,96.59
2022-12-02T09:28:14.737Z,96.43
2022-12-02T09:30:42.670Z,96.67
2022-12-02T09:33:10.453Z,96.39
2022-12-02T09:35:38.327Z,96.21
2022-12-02T09:38:06.359Z,96.61
2022-12-02T09:40:34.835Z,96.65
2022-12-02T09:43:04.753Z,96.17
2022-12-02T09:45:32.662Z,95.73
2022-12-02T09:48:00.829Z,96.05
2022-12-02T09:50:28.803Z,96.09
2022-12-02T09:53:03.424Z,96.22
2022-12-02T09:55:31.545Z,96.36
2022-12-02T09:58:14.501Z,96.47
2022-12-02T10:00:43.405Z,96.65
2022-12-02T10:03:18.898Z,96.65
2022-12-02T10:05:47.796Z,96.76
2022-12-02T10:08:24.275Z,96.74
2022-12-02T10:10:55.168Z,96.91
2022-12-02T10:13:27.142Z,96.86
2022-12-02T10:15:55.255Z,97.11
2022-12-02T10:18:29.103Z,96.70
2022-12-02T10:20:57.635Z,96.66
2022-12-02T10:23:27.737Z,96.40
2022-12-02T10:26:07.995Z,96.56
2022-12-02T10:28:38.496Z,96.70
2022-12-02T10:31:15.181Z,96.58
2022-12-02T10:33:53.410Z,96.37
2022-12-02T10:36:30.847Z,96.31
2022-12-02T10:39:16.756Z,96.03
2022-12-02T10:41:45.407Z,95.71
2022-12-02T10:44:23.657Z,96.01
2022-12-02T10:46:52.322Z,96.14
2022-12-02T10:49:23.361Z,95.76
2022-12-02T10:51:51.381Z,95.31
2022-12-02T10:54:29.155Z,95.62
2022-12-02T10:56:57.351Z,95.46
2022-12-02T10:59:25.406Z,95.70
2022-12-02T11:01:54.075Z,95.48
2022-12-02T11:04:22.754Z,95.15
2022-12-02T11:06:50.991Z,94.53
2022-12-02T11:12:30.593Z,93.86
2022-12-02T11:14:58.610Z,94.05
2022-12-02T11:17:46.972Z,94.17
2022-12-02T11:20:29.902Z,93.57
2022-12-02T11:22:58.536Z,93.70
2022-12-02T11:25:44.649Z,93.30
2022-12-02T11:28:18.538Z,92.57
2022-12-02T11:30:48.012Z,92.55
2022-12-02T11:34:05.810Z,92.95
2022-12-02T11:36:36.052Z,92.81
2022-12-02T11:39:09.863Z,92.78
2022-12-02T11:41:50.107Z,92.26
2022-12-02T11:44:29.534Z,92.31
2022-12-02T11:46:59.737Z,92.54
2022-12-02T11:49:42.500Z,92.65
2022-12-02T11:52:11.992Z,92.84
2022-12-02T11:55:00.721Z,93.24
2022-12-02T11:57:43.642Z,93.21
2022-12-02T12:00:40.837Z,93.10
2022-12-02T12:03:12.654Z,92.99
2022-12-02T12:05:41.871Z,92.54
2022-12-02T12:08:09.998Z,92.71
2022-12-02T12:10:40.739Z,93.11
2022-12-02T12:13:24.354Z,93.31
2022-12-02T12:15:52.289Z,93.44
2022-12-02T12:18:40.628Z,92.88
2022-12-02T12:21:09.487Z,92.80
2022-12-02T12:23:40.721Z,92.52
2022-12-02T12:26:29.112Z,93.08
2022-12-02T12:29:01.929Z,93.44
2022-12-02T12:31:34.877Z,93.69
2022-12-02T12:34:07.524Z,93.29
2022-12-02T12:36:36.184Z,93.17
2022-12-02T12:39:06.953Z,93.57
2022-12-02T12:44:28.315Z,93.43
2022-12-02T12:47:04.496Z,93.40
2022-12-02T12:49:34.514Z,93.49
2022-12-02T12:52:02.571Z,93.51
2022-12-02T12:54:31.049Z,93.55
2022-12-02T12:56:58.963Z,93.38
2022-12-02T12:59:27.095Z,93.30
2022-12-02T13:01:55.257Z,93.11
2022-12-02T13:04:23.304Z,93.05
2022-12-02T13:06:51.243Z,92.87
2022-12-02T13:09:19.027Z,92.92
2022-12-02T13:11:47.304Z,92.90
2022-12-02T13:14:15.241Z,93.13
2022-12-02T13:16:43.627Z,93.04
2022-12-02T13:19:11.908Z,93.07
2022-12-02T13:21:40.119Z,93.00
2022-12-02T13:24:09.107Z,92.96
2022-12-02T13:26:37.096Z,93.28
2022-12-02T13:29:05.044Z,93.06
2022-12-02T13:31:33.089Z,93.00
2022-12-02T13:34:01.104Z,92.76
2022-12-02T13:36:29.009Z,92.51
2022-12-02T13:39:01.090Z,92.40
2022-12-02T13:41:32.403Z,92.63
2022-12-02T13:44:00.384Z,92.75
2022-12-02T13:46:28.433Z,92.98
2022-12-02T13:48:56.326Z,92.69
2022-12-02T13:51:24.147Z,92.48
2022-12-02T13:53:58.527Z,92.64
2022-12-02T13:56:27.997Z,92.39
2022-12-02T13:58:56.204Z,92.37
2022-12-02T14:01:24.714Z,92.58
2022-12-02T14:03:52.648Z,92.88
2022-12-02T14:06:20.475Z,92.92
2022-12-02T14:08:48.430Z,92.43
2022-12-02T14:11:18.261Z,92.27
2022-12-02T14:13:52.977Z,92.65
2022-12-02T14:16:21.408Z,92.67
2022-12-02T14:18:54.033Z,92.87
2022-12-02T14:21:26.479Z,93.00
2022-12-02T14:23:54.821Z,93.27
2022-12-02T14:26:23.325Z,93.59
2022-12-02T14:28:51.243Z,93.89
2022-12-02T14:31:26.148Z,93.98
2022-12-02T14:34:12.539Z,94.16
2022-12-02T14:36:42.946Z,94.40
2022-12-02T14:39:11.527Z,94.51
2022-12-02T14:41:39.409Z,94.53
2022-12-02T14:44:07.542Z,95.02
2022-12-02T14:46:35.668Z,94.90
2022-12-02T14:49:37.226Z,94.98
2022-12-02T14:51:51.671Z,95.05
2022-12-02T14:54:19.571Z,94.91
2022-12-02T14:56:47.485Z,95.02
2022-12-02T14:59:15.489Z,95.67
2022-12-02T15:01:43.542Z,95.55
2022-12-02T15:04:11.583Z,95.51
2022-12-02T15:06:39.727Z,95.70
2022-12-02T15:09:08.035Z,95.86
2022-12-02T15:11:35.992Z,95.83
2022-12-02T15:14:04.486Z,95.91
2022-12-02T15:16:32.376Z,96.12
2022-12-02T15:19:00.342Z,96.13
2022-12-02T15:21:28.294Z,95.89
2022-12-02T15:23:56.168Z,96.03
2022-12-02T15:26:23.985Z,96.24
2022-12-02T15:28:52.058Z,96.49
2022-12-02T15:31:20.710Z,96.42
2022-12-02T15:33:49.180Z,96.59
2022-12-02T15:36:17.158Z,96.77
2022-12-02T15:38:45.149Z,96.82
2022-12-02T15:41:13.058Z,96.80
2022-12-02T15:43:41.027Z,96.87
2022-12-02T15:46:08.993Z,97.20
2022-12-02T15:48:37.550Z,97.40
2022-12-02T15:51:05.650Z,97.53
2022-12-02T15:53:33.459Z,97.48
2022-12-02T15:56:01.362Z,97.54
2022-12-02T15:58:29.255Z,97.48
2022-12-02T16:00:57.272Z,97.32
2022-12-02T16:03:25.218Z,97.23
2022-12-02T16:05:53.119Z,97.27
2022-12-02T16:08:21.451Z,97.26
2022-12-02T16:10:49.663Z,97.57
2022-12-02T16:13:17.666Z,97.64
2022-12-02T16:15:45.576Z,97.29
2022-12-02T16:18:13.456Z,97.27
2022-12-02T16:20:41.461Z,97.28
2022-12-02T16:23:09.425Z,97.23
2022-12-02T16:25:37.881Z,97.09
2022-12-02T16:28:05.698Z,97.06
2022-12-02T16:30:33.939Z,96.99
2022-12-02T16:33:01.825Z,96.86
2022-12-02T16:35:29.748Z,96.84
2022-12-02T16:38:02.904Z,96.66
2022-12-02T16:40:32.367Z,96.70
2022-12-02T16:43:02.215Z,96.84
2022-12-02T16:45:30.310Z,96.88
2022-12-02T16:47:58.294Z,96.69
2022-12-02T16:50:26.155Z,96.72
2022-12-02T16:52:53.997Z,96.66
2022-12-02T16:55:22.110Z,96.78
2022-12-02T16:57:49.972Z,96.66
2022-12-02T17:00:18.188Z,96.71
2022-12-02T17:02:46.062Z,97.22
2022-12-02T17:05:14.184Z,97.08
2022-12-02T17:07:42.474Z,97.05
2022-12-02T17:10:11.200Z,97.29
2022-12-02T17:12:39.203Z,97.58
2022-12-02T17:15:11.710Z,97.30
2022-12-02T17:17:46.644Z,97.40
2022-12-02T17:20:16.151Z,97.26
2022-12-02T17:22:44.187Z,97.70
2022-12-02T17:25:13.316Z,97.75
2022-12-02T17:27:41.333Z,97.40
2022-12-02T17:30:11.045Z,97.21
2022-12-02T17:32:39.070Z,97.26
2022-12-02T17:35:07.493Z,97.34
2022-12-02T17:37:35.487Z,97.39
2022-12-02T17:40:03.837Z,97.58
2022-12-02T17:42:31.906Z,97.68
2022-12-02T17:44:59.859Z,97.37
2022-12-02T17:47:27.795Z,97.07
2022-12-02T17:49:55.782Z,97.13
2022-12-02T17:52:23.969Z,96.93
2022-12-02T17:54:52.175Z,96.99
2022-12-02T17:57:20.306Z,96.83
2022-12-02T17:59:48.403Z,96.89
2022-12-02T18:02:16.590Z,96.94
2022-12-02T18:04:44.981Z,97.22
2022-12-02T18:07:13.381Z,96.93
2022-12-02T18:09:41.776Z,97.39
2022-12-02T18:12:10.278Z,97.74
2022-12-02T18:14:38.211Z,97.49
2022-12-02T18:17:07.613Z,97.46
2022-12-02T18:19:35.794Z,97.72
2022-12-02T18:22:03.794Z,97.97
2022-12-02T18:24:31.689Z,97.69
2022-12-02T18:26:59.545Z,97.75
2022-12-02T18:29:27.493Z,97.41
2022-12-02T18:31:55.421Z,97.58
2022-12-02T18:34:23.799Z,97.83
2022-12-02T18:36:52.109Z,97.58
2022-12-02T18:39:20.100Z,97.53
2022-12-02T18:41:48.150Z,97.60
2022-12-02T18:44:15.970Z,97.64
2022-12-02T18:46:43.896Z,97.57
2022-12-02T18:49:11.831Z,97.62
2022-12-02T18:51:39.683Z,97.69
2022-12-02T18:54:07.504Z,97.79
2022-12-02T18:56:35.394Z,98.14
2022-12-02T18:59:04.635Z,98.00
2022-12-02T19:01:41.323Z,97.84
2022-12-02T19:04:09.879Z,98.46
2022-12-02T19:06:38.135Z,98.13
2022-12-02T19:09:06.722Z,98.09
2022-12-02T19:11:34.763Z,98.13
2022-12-02T19:14:02.682Z,97.85
2022-12-02T19:16:30.816Z,97.40
2022-12-02T19:18:58.957Z,97.80
2022-12-02T19:21:26.988Z,98.61
2022-12-02T19:23:54.875Z,98.02
2022-12-02T19:26:23.338Z,97.70
2022-12-02T19:28:52.299Z,97.69
2022-12-02T19:31:20.423Z,97.48
2022-12-02T19:33:48.459Z,97.30
2022-12-02T19:36:16.325Z,97.30
2022-12-02T19:38:44.206Z,97.58
2022-12-02T19:41:12.059Z,97.79
2022-12-02T19:43:40.041Z,97.76
2022-12-02T19:46:08.072Z,97.82
2022-12-02T19:48:36.067Z,97.73
2022-12-02T19:51:04.036Z,97.65
2022-12-02T19:53:32.103Z,97.64
2022-12-02T19:56:00.091Z,97.60
2022-12-02T19:58:28.145Z,97.80
2022-12-02T20:00:56.425Z,98.21
2022-12-02T20:03:24.445Z,98.26
2022-12-02T20:05:52.396Z,97.80
2022-12-02T20:08:20.668Z,97.50
2022-12-02T20:10:48.910Z,97.64
2022-12-02T20:13:18.025Z,97.62
2022-12-02T20:15:45.940Z,97.85
2022-12-02T20:18:13.838Z,97.54
2022-12-02T20:20:41.626Z,97.70
2022-12-02T20:23:10.083Z,97.37
2022-12-02T20:25:38.364Z,97.39
2022-12-02T20:28:06.433Z,97.23
2022-12-02T20:30:34.498Z,97.46
2022-12-02T20:33:02.305Z,97.62
2022-12-02T20:35:30.155Z,97.74
2022-12-02T20:37:58.202Z,97.68
2022-12-02T20:40:26.794Z,97.75
2022-12-02T20:42:54.709Z,97.62
2022-12-02T20:45:23.936Z,97.62
2022-12-02T20:47:52.021Z,98.06
2022-12-02T20:50:19.840Z,97.95
2022-12-02T20:52:53.602Z,98.04
2022-12-02T20:55:22.285Z,97.89
2022-12-02T20:57:50.300Z,98.16
2022-12-02T21:00:19.442Z,98.16
2022-12-02T21:02:47.471Z,97.86
2022-12-02T21:05:15.993Z,97.86
2022-12-02T21:07:44.124Z,98.25
2022-12-02T21:10:12.442Z,98.14
2022-12-02T21:12:40.521Z,98.57
2022-12-02T21:15:08.996Z,98.38
2022-12-02T21:17:37.022Z,98.21
2022-12-02T21:20:05.642Z,98.23
2022-12-02T21:22:33.635Z,98.43
2022-12-02T21:25:01.464Z,98.32
2022-12-02T21:27:29.417Z,98.41
2022-12-02T21:29:57.898Z,98.65
2022-12-02T21:32:25.902Z,98.76
2022-12-02T21:34:53.981Z,98.49
2022-12-02T21:37:22.061Z,98.60
2022-12-02T21:39:50.037Z,98.49
2022-12-02T21:42:17.915Z,98.60
2022-12-02T21:44:45.890Z,99.10
2022-12-02T21:47:14.011Z,99.64
2022-12-02T21:49:47.428Z,99.65
2022-12-02T21:52:18.100Z,99.09
2022-12-02T21:54:46.129Z,98.74
2022-12-02T21:57:14.276Z,99.31
2022-12-02T21:59:42.867Z,99.24
2022-12-02T22:02:14.141Z,99.27
2022-12-02T22:04:44.582Z,99.13
2022-12-02T22:07:31.162Z,99.14
2022-12-02T22:09:59.630Z,98.92
2022-12-02T22:12:27.432Z,98.89
2022-12-02T22:14:55.557Z,98.72
2022-12-02T22:17:23.587Z,98.73
2022-12-02T22:19:51.600Z,98.71
2022-12-02T22:22:19.452Z,98.68
2022-12-02T22:24:47.431Z,98.57
2022-12-02T22:27:15.349Z,98.54
2022-12-02T22:29:43.296Z,98.64
2022-12-02T22:32:11.423Z,98.69
2022-12-02T22:34:40.031Z,98.70
2022-12-02T22:37:08.036Z,98.50
2022-12-02T22:39:35.977Z,98.44
2022-12-02T22:42:04.061Z,98.43
2022-12-02T22:44:32.315Z,98.72
2022-12-02T22:47:00.287Z,98.73
2022-12-02T22:49:28.113Z,98.59
2022-12-02T22:51:56.287Z,98.54
2022-12-02T22:54:24.396Z,98.81
2022-12-02T22:56:52.364Z,98.74
2022-12-02T22:59:20.243Z,98.64
2022-12-02T23:01:48.154Z,98.96
2022-12-02T23:04:16.269Z,98.73
2022-12-02T23:06:44.237Z,98.51
2022-12-02T23:09:12.726Z,98.76
2022-12-02T23:11:40.686Z,98.70
2022-12-02T23:14:08.657Z,98.72
2022-12-02T23:16:37.187Z,98.66
2022-12-02T23:19:05.153Z,98.71
2022-12-02T23:21:33.075Z,98.75
2022-12-02T23:24:01.009Z,99.02
2022-12-02T23:26:29.037Z,98.77
2022-12-02T23:28:57.188Z,98.35
2022-12-02T23:31:25.326Z,98.43
2022-12-02T23:33:53.328Z,98.59
2022-12-02T23:36:21.295Z,98.78
2022-12-02T23:38:49.185Z,98.70
2022-12-02T23:41:17.337Z,98.63
2022-12-02T23:43:45.262Z,98.40
2022-12-02T23:46:13.196Z,98.50
2022-12-02T23:48:41.037Z,98.32
2022-12-02T23:51:09.007Z,98.35
2022-12-02T23:53:36.798Z,98.16
2022-12-02T23:56:05.263Z,98.37
2022-12-02T23:58:33.132Z,98.43
